createdAt,value
2023-11-18T00:02:26.335Z,15.10
2023-11-18T00:05:32.170Z,16.30
2023-11-18T00:08:38.306Z,15.00
2023-11-18T00:11:44.414Z,14.90
2023-11-18T00:14:50.299Z,14.80
2023-11-18T00:17:55.985Z,14.90
2023-11-18T00:21:01.750Z,15.80
2023-11-18T00:24:09.229Z,13.90
2023-11-18T00:27:16.367Z,14.30
2023-11-18T00:30:22.041Z,14.70
2023-11-18T00:33:27.724Z,16.20
2023-11-18T00:36:33.465Z,14.90
2023-11-18T00:39:39.734Z,15.00
2023-11-18T00:42:45.425Z,15.00
2023-11-18T00:45:52.521Z,11.10
2023-11-18T00:48:59.622Z,13.80
2023-11-18T00:52:06.133Z,14.90
2023-11-18T00:55:12.707Z,15.30
2023-11-18T00:58:18.351Z,15.30
2023-11-18T01:01:23.998Z,12.10
2023-11-18T01:04:29.690Z,12.60
2023-11-18T01:07:35.355Z,12.70
2023-11-18T01:10:41.501Z,13.10
2023-11-18T01:13:47.201Z,13.40
2023-11-18T01:16:53.915Z,12.80
2023-11-18T01:20:00.488Z,12.90
2023-11-18T01:23:06.285Z,14.10
2023-11-18T01:26:13.636Z,12.20
2023-11-18T01:29:19.466Z,11.80
2023-11-18T01:32:26.766Z,12.10
2023-11-18T01:35:32.771Z,12.60
2023-11-18T01:38:39.666Z,12.10
2023-11-18T01:41:45.738Z,13.10
2023-11-18T01:44:52.401Z,12.20
2023-11-18T01:47:58.334Z,12.40
2023-11-18T01:51:07.346Z,12.50
2023-11-18T01:54:16.930Z,13.10
2023-11-18T01:57:22.794Z,13.80
2023-11-18T02:00:29.064Z,12.50
2023-11-18T02:03:34.794Z,14.00
2023-11-18T02:06:40.991Z,13.10
2023-11-18T02:09:47.296Z,12.90
2023-11-18T02:16:06.422Z,14.20
2023-11-18T02:19:21.790Z,14.90
2023-11-18T02:22:27.955Z,13.20
2023-11-18T02:25:41.854Z,14.60
2023-11-18T02:28:47.593Z,14.10
2023-11-18T02:31:59.838Z,15.70
2023-11-18T02:35:12.056Z,13.50
2023-11-18T02:38:21.591Z,14.00
2023-11-18T02:41:30.566Z,14.40
2023-11-18T02:44:37.585Z,14.80
2023-11-18T02:47:43.750Z,13.40
2023-11-18T02:50:49.399Z,13.60
2023-11-18T02:53:55.924Z,13.60
2023-11-18T02:57:01.846Z,15.30
2023-11-18T03:00:13.466Z,13.90
2023-11-18T03:03:19.358Z,14.20
2023-11-18T03:06:25.043Z,14.70
2023-11-18T03:09:30.945Z,15.60
2023-11-18T03:12:36.810Z,13.90
2023-11-18T03:15:42.847Z,15.20
2023-11-18T03:18:49.360Z,16.00
2023-11-18T03:21:55.865Z,14.90
2023-11-18T03:25:01.479Z,15.60
2023-11-18T03:28:08.698Z,16.30
2023-11-18T03:31:15.822Z,14.80
2023-11-18T03:34:22.098Z,15.50
2023-11-18T03:40:34.194Z,16.20
2023-11-18T03:43:40.927Z,15.60
2023-11-18T03:46:46.716Z,16.50
2023-11-18T03:49:52.668Z,15.90
2023-11-18T03:52:58.447Z,15.60
2023-11-18T03:56:04.632Z,15.60
2023-11-18T04:02:14.736Z,16.70
2023-11-18T04:05:20.491Z,15.90
2023-11-18T04:08:26.753Z,16.10
2023-11-18T04:14:36.478Z,16.20
2023-11-18T04:17:42.460Z,17.30
2023-11-18T04:20:51.609Z,16.60
2023-11-18T04:23:57.565Z,18.50
2023-11-18T04:27:03.578Z,18.80
2023-11-18T04:30:11.380Z,18.40
2023-11-18T04:33:17.049Z,17.00
2023-11-18T04:36:23.349Z,15.70
2023-11-18T04:39:29.521Z,14.10
2023-11-18T04:42:35.128Z,13.80
2023-11-18T04:45:41.394Z,14.00
2023-11-18T04:51:51.375Z,14.40
2023-11-18T04:54:57.042Z,14.70
2023-11-18T04:58:02.722Z,12.90
2023-11-18T05:01:10.220Z,14.00
2023-11-18T05:04:17.103Z,14.20
2023-11-18T05:07:22.959Z,14.00
2023-11-18T05:10:28.634Z,13.90
2023-11-18T05:13:35.341Z,13.50
2023-11-18T05:16:41.481Z,14.70
2023-11-18T05:19:47.171Z,13.30
2023-11-18T05:22:52.948Z,14.20
2023-11-18T05:25:59.502Z,15.00
2023-11-18T05:29:05.742Z,15.00
2023-11-18T05:32:11.879Z,15.60
2023-11-18T05:35:17.553Z,15.10
2023-11-18T05:38:25.032Z,15.90
2023-11-18T05:41:31.817Z,15.40
2023-11-18T05:44:39.073Z,14.30
2023-11-18T05:47:44.740Z,16.60
2023-11-18T05:50:50.623Z,13.90
2023-11-18T05:53:56.589Z,14.60
2023-11-18T05:57:02.504Z,14.80
2023-11-18T06:00:17.879Z,15.20
2023-11-18T06:03:26.616Z,14.20
2023-11-18T06:06:33.288Z,14.40
2023-11-18T06:09:38.920Z,13.50
2023-11-18T06:12:44.645Z,13.10
2023-11-18T06:15:51.079Z,12.90
2023-11-18T06:18:59.813Z,14.80
2023-11-18T06:22:07.053Z,14.40
2023-11-18T06:25:14.126Z,15.00
2023-11-18T06:28:19.830Z,13.70
2023-11-18T06:31:25.999Z,15.10
2023-11-18T06:34:31.662Z,13.60
2023-11-18T06:37:37.568Z,16.70
2023-11-18T06:40:43.217Z,14.00
2023-11-18T06:43:58.663Z,14.00
2023-11-18T06:47:06.353Z,12.90
2023-11-18T06:50:15.653Z,14.20
2023-11-18T06:53:21.880Z,12.80
2023-11-18T06:59:32.054Z,13.60
2023-11-18T07:02:37.712Z,14.50
2023-11-18T07:05:43.383Z,16.00
2023-11-18T07:08:49.855Z,12.80
2023-11-18T07:11:57.301Z,14.20
2023-11-18T07:15:03.775Z,13.90
2023-11-18T07:21:15.872Z,11.40
2023-11-18T07:24:22.621Z,9.40
2023-11-18T07:27:28.338Z,9.20
2023-11-18T07:30:33.932Z,8.60
2023-11-18T07:33:40.870Z,10.00
2023-11-18T07:36:48.609Z,9.70
2023-11-18T07:39:56.343Z,8.70
2023-11-18T07:43:03.949Z,10.10
2023-11-18T07:46:10.157Z,10.70
2023-11-18T07:49:17.775Z,9.90
2023-11-18T07:52:23.433Z,10.10
2023-11-18T07:55:29.601Z,9.70
2023-11-18T07:58:38.526Z,9.10
2023-11-18T08:01:47.558Z,10.20
2023-11-18T08:04:53.516Z,10.80
2023-11-18T08:08:00.419Z,10.90
2023-11-18T08:11:07.015Z,10.60
2023-11-18T08:14:12.764Z,11.10
2023-11-18T08:17:18.454Z,10.50
2023-11-18T08:20:26.597Z,10.60
2023-11-18T08:23:32.898Z,11.00
2023-11-18T08:26:38.718Z,10.30
2023-11-18T08:29:44.320Z,11.50
2023-11-18T08:32:50.307Z,11.10
2023-11-18T08:35:56.295Z,10.10
2023-11-18T08:39:01.992Z,10.10
2023-11-18T08:42:08.840Z,11.20
2023-11-18T08:45:15.642Z,11.70
2023-11-18T08:48:21.292Z,13.00
2023-11-18T08:51:27.298Z,11.80
2023-11-18T08:54:39.124Z,13.80
2023-11-18T08:57:53.947Z,14.00
2023-11-18T09:01:07.819Z,12.30
2023-11-18T09:04:13.865Z,12.50
2023-11-18T09:07:20.337Z,11.70
2023-11-18T09:10:26.393Z,12.30
2023-11-18T09:13:32.899Z,11.60
2023-11-18T09:16:40.876Z,11.00
2023-11-18T09:19:47.632Z,9.90
2023-11-18T09:22:56.990Z,11.60
2023-11-18T09:26:03.725Z,11.20
2023-11-18T09:29:10.763Z,11.00
2023-11-18T09:32:16.617Z,12.10
2023-11-18T09:35:22.722Z,13.70
2023-11-18T09:38:32.486Z,11.10
2023-11-18T09:41:39.052Z,12.30
2023-11-18T09:44:45.268Z,11.90
2023-11-18T09:47:54.895Z,11.50
2023-11-18T09:51:03.668Z,12.90
2023-11-18T09:54:19.309Z,11.80
2023-11-18T09:57:34.628Z,13.40
2023-11-18T10:00:42.937Z,14.80
2023-11-18T10:03:50.230Z,13.10
2023-11-18T10:06:57.999Z,14.30
2023-11-18T10:10:03.893Z,13.00
2023-11-18T10:13:22.841Z,14.20
2023-11-18T10:16:32.119Z,17.60
2023-11-18T10:19:58.784Z,15.20
2023-11-18T10:23:14.243Z,11.10
2023-11-18T10:26:20.436Z,12.20
2023-11-18T10:29:30.238Z,12.40
2023-11-18T10:32:37.479Z,13.50
2023-11-18T10:35:57.145Z,12.50
2023-11-18T10:39:14.835Z,18.00
2023-11-18T10:42:20.754Z,14.50
2023-11-18T10:45:29.463Z,14.80
2023-11-18T10:48:35.124Z,15.00
2023-11-18T10:51:43.179Z,15.00
2023-11-18T10:54:57.209Z,15.60
2023-11-18T10:58:04.771Z,17.90
2023-11-18T11:01:12.904Z,17.10
2023-11-18T11:04:22.312Z,16.80
2023-11-18T11:07:31.030Z,18.60
2023-11-18T11:10:37.381Z,18.90
2023-11-18T11:13:43.327Z,19.20
2023-11-18T11:16:55.106Z,17.80
2023-11-18T11:20:18.815Z,19.80
2023-11-18T11:23:44.750Z,24.70
2023-11-18T11:27:18.633Z,26.50
2023-11-18T11:30:33.075Z,20.40
2023-11-18T11:33:46.965Z,19.90
2023-11-18T11:36:53.954Z,17.10
2023-11-18T11:39:59.820Z,16.40
2023-11-18T11:43:10.803Z,15.90
2023-11-18T11:46:24.595Z,16.20
2023-11-18T11:49:38.189Z,15.20
2023-11-18T11:52:51.809Z,14.30
2023-11-18T11:56:07.729Z,15.20
2023-11-18T12:02:19.189Z,17.80
2023-11-18T12:05:28.559Z,17.70
2023-11-18T12:08:35.041Z,17.90
2023-11-18T12:14:57.628Z,15.90
2023-11-18T12:18:18.796Z,15.60
2023-11-18T12:21:55.551Z,16.20
2023-11-18T12:25:37.781Z,14.90
2023-11-18T12:28:47.111Z,15.30
2023-11-18T12:31:53.302Z,16.90
2023-11-18T12:35:00.770Z,14.30
2023-11-18T12:38:47.279Z,14.80
2023-11-18T12:42:08.055Z,17.20
2023-11-18T12:45:55.003Z,15.10
2023-11-18T12:49:02.843Z,15.20
2023-11-18T12:52:09.615Z,15.40
2023-11-18T12:55:20.375Z,13.60
2023-11-18T12:58:26.263Z,13.70
2023-11-18T13:01:35.052Z,11.00
2023-11-18T13:04:41.637Z,14.60
2023-11-18T13:07:48.612Z,14.10
2023-11-18T13:10:54.533Z,14.00
2023-11-18T13:14:00.988Z,15.60
2023-11-18T13:20:24.712Z,14.50
2023-11-18T13:23:31.542Z,16.50
2023-11-18T13:26:37.791Z,16.00
2023-11-18T13:29:50.212Z,16.30
2023-11-18T13:32:57.486Z,17.70
2023-11-18T13:36:06.622Z,14.60
2023-11-18T13:39:18.265Z,14.30
2023-11-18T13:42:27.357Z,14.40
2023-11-18T13:45:38.448Z,14.30
2023-11-18T13:48:50.412Z,15.50
2023-11-18T13:51:57.014Z,14.30
2023-11-18T13:55:02.760Z,16.20
2023-11-18T13:58:11.924Z,16.60
2023-11-18T14:01:17.863Z,15.80
2023-11-18T14:04:24.400Z,15.90
2023-11-18T14:07:30.053Z,16.50
2023-11-18T14:10:39.383Z,15.30
2023-11-18T14:25:29.387Z,16.20
2023-11-18T14:28:36.199Z,14.80
2023-11-18T14:31:42.310Z,15.00
2023-11-18T14:34:50.301Z,16.10
2023-11-18T14:37:57.308Z,14.70
2023-11-18T14:41:04.000Z,17.30
2023-11-18T14:44:10.837Z,17.30
2023-11-18T14:47:17.989Z,17.10
2023-11-18T14:50:28.717Z,17.20
2023-11-18T14:53:35.309Z,17.60
2023-11-18T14:56:41.129Z,18.70
2023-11-18T14:59:46.798Z,21.10
2023-11-18T15:02:55.425Z,17.30
2023-11-18T15:06:02.834Z,18.30
2023-11-18T15:09:12.341Z,23.30
2023-11-18T15:12:18.186Z,20.20
2023-11-18T15:15:32.509Z,23.00
2023-11-18T15:18:39.734Z,33.30
2023-11-18T15:21:47.088Z,22.00
2023-11-18T15:24:53.151Z,18.60
2023-11-18T15:28:00.000Z,20.60
2023-11-18T15:31:06.485Z,25.90
2023-11-18T15:34:12.997Z,25.80
2023-11-18T15:37:18.700Z,25.70
2023-11-18T15:40:26.869Z,17.60
2023-11-18T15:43:33.557Z,17.50
2023-11-18T15:46:39.455Z,16.50
2023-11-18T15:49:46.107Z,17.10
2023-11-18T15:52:53.587Z,20.40
2023-11-18T15:55:59.545Z,21.10
2023-11-18T15:59:05.636Z,20.80
2023-11-18T16:02:11.359Z,17.40
2023-11-18T16:05:18.898Z,16.90
2023-11-18T16:08:25.807Z,22.40
2023-11-18T16:11:31.745Z,20.30
2023-11-18T16:14:38.229Z,23.10
2023-11-18T16:17:47.237Z,29.40
2023-11-18T16:20:53.018Z,30.10
2023-11-18T16:23:59.328Z,29.50
2023-11-18T16:30:11.048Z,20.50
2023-11-18T16:33:16.772Z,21.60
2023-11-18T16:36:24.323Z,24.30
2023-11-18T16:39:30.015Z,23.40
2023-11-18T16:42:37.752Z,25.90
2023-11-18T16:45:43.700Z,20.30
2023-11-18T16:48:49.551Z,30.90
2023-11-18T16:51:59.312Z,23.90
2023-11-18T16:55:07.612Z,31.00
2023-11-18T16:58:13.363Z,32.20
2023-11-18T17:01:19.286Z,31.30
2023-11-18T17:04:25.687Z,20.50
2023-11-18T17:07:31.530Z,24.20
2023-11-18T17:10:37.494Z,36.20
2023-11-18T17:13:43.339Z,21.20
2023-11-18T17:16:49.004Z,22.50
2023-11-18T17:19:54.770Z,45.00
2023-11-18T17:23:01.095Z,41.40
2023-11-18T17:29:14.923Z,26.30
2023-11-18T17:32:20.592Z,21.70
2023-11-18T17:35:27.260Z,19.50
2023-11-18T17:38:34.438Z,20.90
2023-11-18T17:41:40.293Z,20.60
2023-11-18T17:44:46.230Z,22.30
2023-11-18T17:47:52.243Z,20.80
2023-11-18T17:50:59.823Z,27.70
2023-11-18T17:54:05.740Z,23.70
2023-11-18T17:57:12.030Z,39.50
2023-11-18T18:03:27.945Z,30.40
2023-11-18T18:09:38.527Z,26.60
2023-11-18T18:12:48.049Z,25.50
2023-11-18T18:15:54.368Z,24.40
2023-11-18T18:19:01.516Z,26.90
2023-11-18T18:22:07.590Z,24.90
2023-11-18T18:25:13.810Z,26.90
2023-11-18T18:31:23.857Z,23.40
2023-11-18T18:34:31.493Z,23.00
2023-11-18T18:37:37.439Z,67.00
2023-11-18T18:40:43.283Z,31.80
2023-11-18T18:43:48.882Z,37.80
2023-11-18T18:46:55.701Z,32.20
2023-11-18T18:50:01.401Z,40.40
2023-11-18T18:53:08.451Z,24.50
2023-11-18T18:56:14.293Z,29.80
2023-11-18T18:59:20.890Z,60.90
2023-11-18T19:02:27.291Z,29.10
2023-11-18T19:05:33.548Z,46.10
2023-11-18T19:08:39.332Z,37.80
2023-11-18T19:11:46.015Z,28.90
2023-11-18T19:14:51.672Z,32.00
2023-11-18T19:17:59.075Z,28.50
2023-11-18T19:21:05.172Z,37.50
2023-11-18T19:24:14.240Z,28.50
2023-11-18T19:27:19.917Z,29.40
2023-11-18T19:30:25.877Z,36.40
2023-11-18T19:33:31.654Z,34.10
2023-11-18T19:36:37.575Z,36.70
2023-11-18T19:39:44.460Z,29.80
2023-11-18T19:42:50.281Z,33.10
2023-11-18T19:45:55.910Z,28.20
2023-11-18T19:49:01.872Z,60.40
2023-11-18T19:52:08.660Z,39.90
2023-11-18T19:55:15.611Z,26.90
2023-11-18T19:58:23.253Z,26.30
2023-11-18T20:01:29.923Z,24.70
2023-11-18T20:04:36.326Z,25.60
2023-11-18T20:10:48.486Z,26.00
2023-11-18T20:13:54.463Z,27.80
2023-11-18T20:17:00.452Z,25.10
2023-11-18T20:20:09.583Z,25.40
2023-11-18T20:23:15.951Z,24.80
2023-11-18T20:29:25.873Z,27.40
2023-11-18T20:32:31.673Z,28.00
2023-11-18T20:35:37.441Z,27.20
2023-11-18T20:38:44.297Z,28.00
2023-11-18T20:41:50.508Z,25.20
2023-11-18T20:48:01.021Z,27.30
2023-11-18T20:51:09.090Z,26.50
2023-11-18T20:54:15.432Z,29.80
2023-11-18T20:57:22.188Z,27.40
2023-11-18T21:00:27.972Z,24.90
2023-11-18T21:03:33.877Z,26.10
2023-11-18T21:06:39.786Z,22.50
2023-11-18T21:09:45.507Z,24.40
2023-11-18T21:12:51.606Z,24.00
2023-11-18T21:15:57.291Z,25.10
2023-11-18T21:19:04.630Z,25.80
2023-11-18T21:22:10.743Z,22.90
2023-11-18T21:25:17.257Z,23.80
2023-11-18T21:28:23.302Z,25.30
2023-11-18T21:31:29.313Z,24.80
2023-11-18T21:34:34.949Z,27.40
2023-11-18T21:37:40.810Z,26.40
2023-11-18T21:40:47.590Z,26.00
2023-11-18T21:43:53.321Z,24.70
2023-11-18T21:46:58.974Z,25.80
2023-11-18T21:50:06.850Z,25.90
2023-11-18T21:53:12.684Z,26.80
2023-11-18T21:56:18.550Z,26.10
2023-11-18T21:59:26.467Z,24.90
2023-11-18T22:02:32.162Z,26.40
2023-11-18T22:05:37.944Z,27.70
2023-11-18T22:08:43.777Z,30.40
2023-11-18T22:11:50.803Z,26.00
2023-11-18T22:14:58.331Z,26.50
2023-11-18T22:18:04.257Z,26.30
2023-11-18T22:21:12.056Z,25.50
2023-11-18T22:24:19.341Z,25.90
2023-11-18T22:27:24.946Z,25.30
2023-11-18T22:30:30.741Z,25.40
2023-11-18T22:33:37.354Z,25.50
2023-11-18T22:36:45.561Z,26.10
2023-11-18T22:39:51.445Z,26.70
2023-11-18T22:42:57.290Z,28.60
2023-11-18T22:46:03.120Z,27.50
2023-11-18T22:49:11.765Z,28.70
2023-11-18T22:52:17.640Z,26.90
2023-11-18T22:55:24.184Z,26.80
2023-11-18T22:58:29.965Z,25.30
2023-11-18T23:01:37.955Z,28.00
2023-11-18T23:04:46.712Z,25.60
2023-11-18T23:07:52.447Z,26.10
2023-11-18T23:10:58.170Z,27.80
2023-11-18T23:14:04.628Z,27.50
2023-11-18T23:17:10.741Z,24.00
2023-11-18T23:20:16.500Z,28.60
2023-11-18T23:23:22.822Z,25.00
2023-11-18T23:29:33.031Z,27.40
2023-11-18T23:32:40.950Z,29.30
2023-11-18T23:35:46.902Z,28.40
2023-11-18T23:39:02.242Z,29.00
2023-11-18T23:42:11.163Z,28.20
2023-11-18T23:45:17.296Z,27.00
2023-11-18T23:48:23.022Z,27.50
2023-11-18T23:51:29.510Z,28.20
2023-11-18T23:54:35.169Z,26.10
2023-11-18T23:57:41.678Z,25.50
